This is the latest recevied weather packets stored in our database for station/object DL9TPA-1. If no packets are shown the sender has not sent any weather packets the latest 10 day(s).
| Time | Temp. | Humidity | Pressure | Rain* | Wind** | Luminosity | Snow |
|---|---|---|---|---|---|---|---|
| 1777447141 | 13.89° C | 43% | 1025.4 hPa | 0 mm | - | - | - |
| 1777446540 | 13.89° C | 41% | 1025.3 hPa | 0 mm | - | - | - |
| 1777445938 | 13.89° C | 43% | 1025.2 hPa | 0 mm | - | - | - |
| 1777445336 | 12.78° C | 47% | 1025.2 hPa | 0 mm | - | - | - |
| 1777444734 | 12.22° C | 48% | 1025.2 hPa | 0 mm | - | - | - |
| 1777444130 | 11.67° C | 50% | 1025.1 hPa | 0 mm | - | - | - |
| 1777443530 | 11.11° C | 51% | 1025.1 hPa | 0 mm | - | - | - |
| 1777442926 | 10.56° C | 53% | 1025 hPa | 0 mm | - | - | - |
| 1777442324 | 9.44° C | 56% | 1024.9 hPa | 0 mm | - | - | - |
| 1777441722 | 8.89° C | 58% | 1024.9 hPa | 0 mm | - | - | - |
| 1777441121 | 7.78° C | 61% | 1024.8 hPa | 0 mm | - | - | - |
| 1777440517 | 7.22° C | 62% | 1024.7 hPa | 0 mm | - | - | - |
| 1777439918 | 6.11° C | 64% | 1024.6 hPa | 0 mm | - | - | - |
| 1777439314 | 5° C | 67% | 1024.6 hPa | 0 mm | - | - | - |
| 1777438711 | 3.89° C | 71% | 1024.5 hPa | 0 mm | - | - | - |
| 1777438111 | 2.78° C | 75% | 1024.5 hPa | 0 mm | - | - | - |
| 1777437510 | 1.67° C | 73% | 1024.5 hPa | 0 mm | - | - | - |
| 1777436906 | 1.11° C | 71% | 1024.5 hPa | 0 mm | - | - | - |
| 1777436307 | 1.11° C | 71% | 1024.4 hPa | 0 mm | - | - | - |
| 1777435703 | 0.56° C | 73% | 1024.3 hPa | 0 mm | - | - | - |
| 1777435101 | 0.56° C | 73% | 1024.3 hPa | 0 mm | - | - | - |
| 1777434498 | 0.56° C | 74% | 1024.2 hPa | 0 mm | - | - | - |
| 1777433898 | 0.56° C | 74% | 1024.1 hPa | 0 mm | - | - | - |
| 1777433295 | 0.56° C | 75% | 1024.1 hPa | 0 mm | - | - | - |
| 1777432693 | 1.11° C | 74% | 1024.2 hPa | 0 mm | - | - | - |
* Rain latest hour (hover to see other rain measurements)
** Current wind speed in m/s (hover to see current wind gust speed)